Chios, Greece
Current Conditions -  °F | °C
As of 12:50 PM on Tuesday 21 Oct 2014 (Local Time) from LGHI Reporting Station
Clear Clear  
Wind Chill: 70°   Ceiling: Unl
Heat Index: 70°   Visibility: 6mi
Dew Point: 46°   Wind: 7mph
Humidity: 43%   Direction: 50°NE
Pressure: 29.94"   Gusts: NA
Location:  38.41°N, 25.85°E
Report Text: LGHI 210950Z 05006KT 310V090 CAVOK 21/08 Q1014
Loading
Personal Weather Stations






























Interactive Weather Map
Tropical Storm Tracking
New forecast layout! Learn more

10-Day Weather Forecast

Advertisements
Track Severe Weather on mobile